Time;durP1;ratioP1;P1;durP2;ratioP2;P2;SDS_P1;SDS_P2;PMS_P1;PMS_P2;Temp;Humidity;BMP_temperature;BMP_pressure;BME280_temperature;BME280_humidity;BME280_pressure;Samples;Min_cycle;Max_cycle;Signal;HPM_P1;HPM_P2
2022/05/24 00:01:04;;;;;;;;;2.67;2.00;;;;;;;;5073235;28;45570;-76
2022/05/24 00:03:29;;;;;;;;;3.00;1.00;;;;;;;;5065164;27;45410;-76
2022/05/24 00:05:54;;;;;;;;;1.67;1.67;;;;;;;;5063182;27;45991;-75
2022/05/24 00:08:20;;;;;;;;;2.00;2.00;;;;;;;;5063098;27;45425;-76
2022/05/24 00:10:45;;;;;;;;;1.00;1.00;;;;;;;;5058253;28;45418;-76
2022/05/24 00:13:11;;;;;;;;;1.00;1.00;;;;;;;;5088147;27;45539;-76
2022/05/24 00:15:38;;;;;;;;;1.33;1.33;;;;;;;;5071775;28;46317;-77
2022/05/24 00:18:11;;;;;;;;;1.67;1.67;;;;;;;;5069200;28;45450;-76
2022/05/24 00:21:02;;;;;;;;;1.00;1.00;;;;;;;;5068569;27;45463;-75
2022/05/24 00:23:28;;;;;;;;;2.00;2.00;;;;;;;;5059257;28;45560;-76
2022/05/24 00:25:56;;;;;;;;;1.00;1.00;;;;;;;;5058499;28;46429;-75
2022/05/24 00:28:22;;;;;;;;;0.33;0.33;;;;;;;;5079048;27;45418;-75
2022/05/24 00:30:48;;;;;;;;;1.67;1.67;;;;;;;;5071903;28;45486;-75
2022/05/24 00:33:14;;;;;;;;;1.00;1.00;;;;;;;;5070858;28;45454;-75
2022/05/24 00:35:39;;;;;;;;;1.75;1.00;;;;;;;;5074094;27;46006;-76
2022/05/24 00:38:07;;;;;;;;;2.00;2.00;;;;;;;;5079464;27;45386;-75
2022/05/24 00:40:42;;;;;;;;;1.00;1.00;;;;;;;;5075831;28;45496;-75
2022/05/24 00:43:10;;;;;;;;;2.00;2.00;;;;;;;;5062445;27;45215;-75
2022/05/24 00:45:47;;;;;;;;;1.00;1.00;;;;;;;;5065302;27;46204;-75
2022/05/24 00:48:21;;;;;;;;;1.00;1.00;;;;;;;;5073251;28;45329;-75
2022/05/24 00:50:48;;;;;;;;;1.33;0.67;;;;;;;;5072290;28;45393;-75
2022/05/24 00:53:22;;;;;;;;;2.33;1.33;;;;;;;;5072649;27;45513;-75
2022/05/24 00:56:07;;;;;;;;;1.33;1.33;;;;;;;;5072348;28;46240;-75
2022/05/24 00:58:39;;;;;;;;;1.00;1.00;;;;;;;;5060729;28;45435;-75
2022/05/24 01:01:13;;;;;;;;;1.00;1.00;;;;;;;;5090816;27;45337;-75
2022/05/24 01:03:38;;;;;;;;;1.00;1.00;;;;;;;;5074899;28;45513;-75
2022/05/24 01:06:04;;;;;;;;;1.00;1.00;;;;;;;;5071460;28;46400;-75
2022/05/24 01:08:32;;;;;;;;;1.00;1.00;;;;;;;;5071865;27;45309;-76
2022/05/24 01:10:58;;;;;;;;;0.33;0.33;;;;;;;;5071988;27;45346;-75
2022/05/24 01:13:27;;;;;;;;;0.00;0.00;;;;;;;;5062220;27;45568;-75
2022/05/24 01:15:52;;;;;;;;;2.33;1.00;;;;;;;;5073048;27;47138;-75
2022/05/24 01:18:18;;;;;;;;;0.67;0.67;;;;;;;;5073327;28;45493;-76
2022/05/24 01:20:46;;;;;;;;;1.00;1.00;;;;;;;;5062928;28;45427;-75
2022/05/24 01:23:17;;;;;;;;;2.00;1.00;;;;;;;;5065532;27;45454;-75
2022/05/24 01:26:01;;;;;;;;;2.00;2.00;;;;;;;;5075125;28;47169;-75
2022/05/24 01:28:29;;;;;;;;;0.33;0.00;;;;;;;;5060534;28;45761;-75
2022/05/24 01:30:54;;;;;;;;;2.00;2.00;;;;;;;;5061014;27;45537;-75
2022/05/24 01:36:10;;;;;;;;;1.00;1.00;;;;;;;;5070867;28;45350;-75
2022/05/24 01:38:37;;;;;;;;;1.00;1.00;;;;;;;;5071519;28;46259;-75
2022/05/24 01:41:03;;;;;;;;;0.00;0.00;;;;;;;;5072560;27;45522;-75
2022/05/24 01:43:28;;;;;;;;;3.00;1.00;;;;;;;;5060088;28;45626;-75
2022/05/24 01:46:05;;;;;;;;;1.00;1.00;;;;;;;;5079238;27;46180;-75
2022/05/24 01:48:35;;;;;;;;;1.33;1.00;;;;;;;;5075486;27;45481;-75
2022/05/24 01:51:01;;;;;;;;;0.67;0.67;;;;;;;;5071337;28;45646;-75
2022/05/24 01:53:30;;;;;;;;;0.00;0.00;;;;;;;;5071435;28;45216;-75
2022/05/24 01:55:57;;;;;;;;;2.00;1.33;;;;;;;;5076138;27;46413;-74
2022/05/24 01:58:26;;;;;;;;;0.67;0.67;;;;;;;;5059541;28;45727;-75
2022/05/24 02:01:05;;;;;;;;;0.00;0.00;;;;;;;;5061185;27;45368;-75
2022/05/24 02:03:30;;;;;;;;;2.67;2.00;;;;;;;;5066415;27;45423;-75
2022/05/24 02:05:56;;;;;;;;;0.67;0.67;;;;;;;;5070904;28;45924;-75
2022/05/24 02:08:21;;;;;;;;;1.00;1.00;;;;;;;;5069410;28;45366;-75
2022/05/24 02:10:49;;;;;;;;;1.67;0.00;;;;;;;;5062628;28;45497;-76
2022/05/24 02:13:21;;;;;;;;;0.00;0.00;;;;;;;;5089641;27;45294;-75
2022/05/24 02:15:48;;;;;;;;;0.00;0.00;;;;;;;;5073799;28;46161;-76
2022/05/24 02:18:16;;;;;;;;;3.00;1.00;;;;;;;;5062512;28;45381;-75
2022/05/24 02:20:42;;;;;;;;;0.00;0.00;;;;;;;;5065327;27;45426;-76
2022/05/24 02:23:09;;;;;;;;;0.00;0.00;;;;;;;;5070767;27;45321;-75
2022/05/24 02:25:36;;;;;;;;;0.33;0.00;;;;;;;;5072563;28;46174;-74
2022/05/24 02:28:02;;;;;;;;;0.67;0.67;;;;;;;;5073839;27;45459;-75
2022/05/24 02:30:28;;;;;;;;;1.67;0.00;;;;;;;;5073506;28;45414;-74
2022/05/24 02:32:53;;;;;;;;;1.00;1.00;;;;;;;;5064074;28;45612;-74
2022/05/24 02:35:19;;;;;;;;;0.67;0.67;;;;;;;;5065554;27;45961;-74
2022/05/24 02:37:44;;;;;;;;;1.00;1.00;;;;;;;;5086157;27;45286;-74
2022/05/24 02:42:54;;;;;;;;;1.33;1.33;;;;;;;;5073957;28;45308;-75
2022/05/24 02:45:19;;;;;;;;;1.00;1.00;;;;;;;;5065210;27;45466;-74
2022/05/24 02:47:45;;;;;;;;;1.33;1.00;;;;;;;;5067202;28;45490;-75
2022/05/24 02:50:11;;;;;;;;;1.00;0.00;;;;;;;;5075129;27;45430;-75
2022/05/24 02:52:37;;;;;;;;;2.67;1.00;;;;;;;;5065833;27;45482;-75
2022/05/24 02:55:02;;;;;;;;;1.00;1.00;;;;;;;;5072102;28;47165;-75
2022/05/24 02:57:27;;;;;;;;;1.00;1.00;;;;;;;;5073012;28;45370;-74
2022/05/24 02:59:53;;;;;;;;;1.00;1.00;;;;;;;;5077929;27;45431;-75
2022/05/24 03:02:18;;;;;;;;;1.00;1.00;;;;;;;;5077982;27;45372;-76
2022/05/24 03:04:43;;;;;;;;;1.00;1.00;;;;;;;;5071290;28;46935;-74
2022/05/24 03:09:52;;;;;;;;;0.00;0.00;;;;;;;;5073376;28;45367;-76
2022/05/24 03:15:03;;;;;;;;;1.00;1.00;;;;;;;;5070309;27;45560;-75
2022/05/24 03:17:28;;;;;;;;;2.00;0.00;;;;;;;;5072838;27;45508;-74
2022/05/24 03:19:53;;;;;;;;;1.67;1.00;;;;;;;;5062407;27;45633;-76
2022/05/24 03:22:19;;;;;;;;;0.00;0.00;;;;;;;;5059067;28;45457;-75
2022/05/24 03:24:44;;;;;;;;;1.00;1.00;;;;;;;;5073087;27;47044;-75
2022/05/24 03:27:11;;;;;;;;;2.00;1.00;;;;;;;;5060477;28;45483;-76
2022/05/24 03:29:41;;;;;;;;;1.00;1.00;;;;;;;;5061393;28;45359;-74
2022/05/24 03:32:07;;;;;;;;;1.00;1.00;;;;;;;;5065191;27;45613;-75
2022/05/24 03:34:34;;;;;;;;;0.00;0.00;;;;;;;;5066664;27;46396;-76
2022/05/24 03:36:59;;;;;;;;;1.00;0.00;;;;;;;;5057156;28;45382;-75
2022/05/24 03:39:24;;;;;;;;;1.00;1.00;;;;;;;;5081795;27;45508;-75
2022/05/24 03:41:49;;;;;;;;;1.00;1.00;;;;;;;;5071748;27;45528;-75
2022/05/24 03:44:15;;;;;;;;;1.00;1.00;;;;;;;;5069480;28;45992;-75
2022/05/24 03:46:40;;;;;;;;;0.33;0.33;;;;;;;;5073573;28;45484;-75
2022/05/24 03:49:06;;;;;;;;;0.67;0.67;;;;;;;;5087824;27;45259;-76
2022/05/24 03:51:31;;;;;;;;;0.00;0.00;;;;;;;;5072436;28;45458;-76
2022/05/24 03:53:56;;;;;;;;;0.67;0.67;;;;;;;;5069490;28;45472;-75
2022/05/24 03:56:22;;;;;;;;;1.00;1.00;;;;;;;;5071613;27;45356;-76
2022/05/24 03:58:47;;;;;;;;;0.00;0.00;;;;;;;;5061207;27;45548;-76
2022/05/24 04:01:12;;;;;;;;;0.67;0.00;;;;;;;;5060198;27;45536;-75
2022/05/24 04:03:37;;;;;;;;;0.00;0.00;;;;;;;;5067600;27;47129;-76
2022/05/24 04:06:03;;;;;;;;;1.67;1.00;;;;;;;;5074185;27;45530;-76
2022/05/24 04:08:29;;;;;;;;;0.00;0.00;;;;;;;;5073057;27;45333;-76
2022/05/24 04:10:58;;;;;;;;;1.00;1.00;;;;;;;;5058935;28;45398;-76
2022/05/24 04:13:23;;;;;;;;;0.00;0.00;;;;;;;;5087752;27;46251;-76
2022/05/24 04:15:49;;;;;;;;;1.00;1.00;;;;;;;;5079045;27;45409;-75
2022/05/24 04:18:14;;;;;;;;;1.00;1.00;;;;;;;;5058552;28;45322;-76
2022/05/24 04:20:39;;;;;;;;;0.00;0.00;;;;;;;;5064660;27;45365;-76
2022/05/24 04:23:04;;;;;;;;;0.00;0.00;;;;;;;;5059979;28;47027;-75
2022/05/24 04:25:33;;;;;;;;;1.00;0.00;;;;;;;;5071856;27;45437;-75
2022/05/24 04:27:58;;;;;;;;;0.00;0.00;;;;;;;;5072458;27;45341;-76
2022/05/24 04:30:23;;;;;;;;;0.00;0.00;;;;;;;;5060107;28;45288;-76
2022/05/24 04:32:48;;;;;;;;;0.00;0.00;;;;;;;;5062994;27;45387;-75
2022/05/24 04:35:14;;;;;;;;;0.00;0.00;;;;;;;;5063007;27;45912;-75
2022/05/24 04:37:39;;;;;;;;;0.00;0.00;;;;;;;;5072111;27;45451;-76
2022/05/24 04:40:05;;;;;;;;;2.00;0.67;;;;;;;;5065266;27;45508;-75
2022/05/24 04:42:30;;;;;;;;;0.00;0.00;;;;;;;;5070855;28;46276;-75
2022/05/24 04:44:57;;;;;;;;;3.00;1.00;;;;;;;;5070421;27;45294;-75
2022/05/24 04:47:23;;;;;;;;;0.33;0.00;;;;;;;;5069353;27;45467;-75
2022/05/24 04:49:53;;;;;;;;;0.00;0.00;;;;;;;;5069213;27;45418;-75
2022/05/24 04:52:19;;;;;;;;;0.67;0.00;;;;;;;;5068917;27;47279;-75
2022/05/24 04:54:44;;;;;;;;;0.00;0.00;;;;;;;;5071282;28;45403;-75
2022/05/24 04:57:11;;;;;;;;;1.00;1.00;;;;;;;;5068418;28;45401;-75
2022/05/24 04:59:36;;;;;;;;;0.67;0.67;;;;;;;;5069128;27;46127;-75
2022/05/24 05:02:02;;;;;;;;;0.00;0.00;;;;;;;;5076905;27;46825;-74
2022/05/24 05:04:27;;;;;;;;;0.00;0.00;;;;;;;;5071690;28;45422;-75
2022/05/24 05:06:53;;;;;;;;;1.33;0.00;;;;;;;;5072182;27;45354;-75
2022/05/24 05:09:18;;;;;;;;;0.00;0.00;;;;;;;;5063226;27;45533;-76
2022/05/24 05:11:44;;;;;;;;;0.00;0.00;;;;;;;;5059748;28;45399;-76
2022/05/24 05:14:09;;;;;;;;;1.00;1.00;;;;;;;;5062522;27;45492;-75
2022/05/24 05:16:38;;;;;;;;;0.33;0.00;;;;;;;;5058784;27;45504;-75
2022/05/24 05:19:05;;;;;;;;;0.00;0.00;;;;;;;;5084299;27;45370;-76
2022/05/24 05:21:33;;;;;;;;;0.67;0.67;;;;;;;;5072171;27;46180;-77
2022/05/24 05:23:59;;;;;;;;;0.00;0.00;;;;;;;;5081337;27;45493;-75
2022/05/24 05:26:24;;;;;;;;;0.00;0.00;;;;;;;;5076681;27;46727;-76
2022/05/24 05:28:49;;;;;;;;;0.00;0.00;;;;;;;;5060444;28;45580;-77
2022/05/24 05:31:19;;;;;;;;;0.33;0.33;;;;;;;;5077214;27;46274;-75
2022/05/24 05:33:45;;;;;;;;;0.00;0.00;;;;;;;;5074829;28;45395;-75
2022/05/24 05:36:11;;;;;;;;;0.00;0.00;;;;;;;;5071691;28;45465;-75
2022/05/24 05:38:36;;;;;;;;;0.33;0.33;;;;;;;;5071789;28;45453;-75
2022/05/24 05:41:02;;;;;;;;;0.33;0.33;;;;;;;;5079069;27;45458;-75
2022/05/24 05:43:27;;;;;;;;;0.00;0.00;;;;;;;;5060217;28;45410;-75
2022/05/24 05:45:53;;;;;;;;;1.00;1.00;;;;;;;;5079810;27;45286;-75
2022/05/24 05:48:18;;;;;;;;;0.00;0.00;;;;;;;;5079306;27;45518;-76
2022/05/24 05:50:44;;;;;;;;;0.00;0.00;;;;;;;;5075694;27;45497;-76
2022/05/24 05:53:09;;;;;;;;;0.00;0.00;;;;;;;;5071705;28;45371;-75
2022/05/24 05:55:36;;;;;;;;;0.33;0.33;;;;;;;;5064918;27;45599;-76
2022/05/24 05:58:01;;;;;;;;;0.00;0.00;;;;;;;;5059735;28;48604;-75
2022/05/24 06:00:26;;;;;;;;;0.00;0.00;;;;;;;;5062542;28;47016;-75
2022/05/24 06:02:52;;;;;;;;;0.00;0.00;;;;;;;;5068714;28;45438;-75
2022/05/24 06:05:17;;;;;;;;;0.00;0.00;;;;;;;;5070860;27;45502;-75
2022/05/24 06:07:42;;;;;;;;;0.00;0.00;;;;;;;;5060330;28;46219;-75
2022/05/24 06:10:08;;;;;;;;;0.67;0.67;;;;;;;;5074383;28;46095;-75
2022/05/24 06:12:33;;;;;;;;;0.33;0.33;;;;;;;;5071916;27;45461;-76
2022/05/24 06:14:59;;;;;;;;;0.00;0.00;;;;;;;;5071420;28;45355;-76
2022/05/24 06:17:24;;;;;;;;;0.00;0.00;;;;;;;;5070141;28;45629;-76
2022/05/24 06:19:49;;;;;;;;;0.00;0.00;;;;;;;;5077757;27;46182;-76
2022/05/24 06:22:15;;;;;;;;;0.33;0.00;;;;;;;;5059255;28;45525;-75
2022/05/24 06:24:40;;;;;;;;;0.00;0.00;;;;;;;;5084193;27;45423;-75
2022/05/24 06:27:05;;;;;;;;;0.00;0.00;;;;;;;;5072824;27;45311;-75
2022/05/24 06:29:32;;;;;;;;;0.00;0.00;;;;;;;;5074000;27;45503;-76
2022/05/24 06:31:57;;;;;;;;;0.00;0.00;;;;;;;;5063967;28;45580;-75
2022/05/24 06:34:22;;;;;;;;;2.67;1.00;;;;;;;;5076641;27;45234;-75
2022/05/24 06:36:47;;;;;;;;;0.00;0.00;;;;;;;;5089814;27;45229;-77
2022/05/24 06:39:13;;;;;;;;;0.00;0.00;;;;;;;;5071163;28;46159;-75
2022/05/24 06:41:38;;;;;;;;;1.00;0.00;;;;;;;;5070858;28;45280;-75
2022/05/24 06:44:03;;;;;;;;;0.00;0.00;;;;;;;;5075938;27;45586;-76
2022/05/24 06:46:29;;;;;;;;;0.00;0.00;;;;;;;;5058952;28;45435;-75
2022/05/24 06:48:54;;;;;;;;;0.33;0.33;;;;;;;;5074623;27;45665;-74
2022/05/24 06:51:20;;;;;;;;;1.00;1.00;;;;;;;;5075328;27;45299;-75
2022/05/24 06:53:46;;;;;;;;;0.00;0.00;;;;;;;;5073886;27;45345;-75
2022/05/24 06:56:12;;;;;;;;;0.00;0.00;;;;;;;;5070524;28;45399;-76
2022/05/24 06:58:37;;;;;;;;;0.00;0.00;;;;;;;;5072395;28;47195;-76
2022/05/24 07:03:49;;;;;;;;;0.00;0.00;;;;;;;;5057213;28;45462;-76
2022/05/24 07:06:15;;;;;;;;;2.00;0.00;;;;;;;;5071344;28;45355;-76
2022/05/24 07:08:42;;;;;;;;;0.00;0.00;;;;;;;;5063134;27;46149;-77
2022/05/24 07:11:07;;;;;;;;;0.00;0.00;;;;;;;;5094837;27;45493;-77
2022/05/24 07:13:33;;;;;;;;;1.00;1.00;;;;;;;;5059295;27;45260;-76
2022/05/24 07:15:58;;;;;;;;;0.00;0.00;;;;;;;;5072601;27;45400;-76
2022/05/24 07:18:25;;;;;;;;;1.00;1.00;;;;;;;;5061554;28;47197;-76
2022/05/24 07:20:50;;;;;;;;;0.00;0.00;;;;;;;;5067042;28;45511;-76
2022/05/24 07:23:16;;;;;;;;;0.33;0.33;;;;;;;;5072242;27;45396;-76
2022/05/24 07:25:42;;;;;;;;;0.00;0.00;;;;;;;;5071683;28;45632;-76
2022/05/24 07:28:09;;;;;;;;;0.00;0.00;;;;;;;;5073547;28;47156;-76
2022/05/24 07:30:35;;;;;;;;;0.00;0.00;;;;;;;;5072426;28;45346;-77
2022/05/24 07:33:00;;;;;;;;;1.33;0.00;;;;;;;;5060750;27;45335;-77
2022/05/24 07:35:25;;;;;;;;;1.00;1.00;;;;;;;;5062513;27;45283;-75
2022/05/24 07:37:51;;;;;;;;;0.00;0.00;;;;;;;;5081391;27;46158;-76
2022/05/24 07:45:50;;;;;;;;;1.00;0.00;;;;;;;;5056862;28;45372;-76
2022/05/24 07:48:16;;;;;;;;;0.00;0.00;;;;;;;;5071546;27;45423;-77
2022/05/24 07:50:41;;;;;;;;;1.67;0.00;;;;;;;;5069227;28;45535;-77
2022/05/24 07:53:08;;;;;;;;;1.00;0.00;;;;;;;;5072148;27;45501;-76
2022/05/24 07:55:33;;;;;;;;;0.67;0.00;;;;;;;;5062564;27;45636;-76
2022/05/24 07:57:58;;;;;;;;;0.00;0.00;;;;;;;;5058583;28;45564;-76
2022/05/24 08:00:23;;;;;;;;;1.00;1.00;;;;;;;;5071519;28;45359;-76
2022/05/24 08:02:49;;;;;;;;;0.00;0.00;;;;;;;;5076157;27;45314;-76
2022/05/24 08:05:15;;;;;;;;;0.00;0.00;;;;;;;;5075514;27;45573;-73
2022/05/24 08:07:40;;;;;;;;;0.00;0.00;;;;;;;;5074092;27;47116;-75
2022/05/24 08:10:06;;;;;;;;;0.00;0.00;;;;;;;;5078817;27;45359;-75
2022/05/24 08:12:32;;;;;;;;;0.00;0.00;;;;;;;;5084952;27;45523;-74
2022/05/24 08:14:58;;;;;;;;;0.33;0.00;;;;;;;;5071814;27;45435;-75
2022/05/24 08:17:23;;;;;;;;;1.33;0.00;;;;;;;;5069134;28;45572;-76
2022/05/24 08:19:49;;;;;;;;;0.00;0.00;;;;;;;;5075713;27;45627;-74
2022/05/24 08:22:14;;;;;;;;;0.00;0.00;;;;;;;;5057791;28;45386;-76
2022/05/24 08:24:39;;;;;;;;;1.67;0.00;;;;;;;;5071896;27;45350;-77
2022/05/24 08:27:04;;;;;;;;;0.00;0.00;;;;;;;;5069935;27;45472;-76
2022/05/24 08:29:30;;;;;;;;;0.00;0.00;;;;;;;;5075344;27;45417;-76
2022/05/24 08:31:55;;;;;;;;;0.00;0.00;;;;;;;;5069535;27;45493;-75
2022/05/24 08:34:20;;;;;;;;;0.00;0.00;;;;;;;;5072142;28;45424;-76
2022/05/24 08:36:45;;;;;;;;;0.00;0.00;;;;;;;;5075090;27;46992;-75
2022/05/24 08:39:11;;;;;;;;;2.00;0.00;;;;;;;;5061168;28;45449;-76
2022/05/24 08:41:54;;;;;;;;;0.00;0.00;;;;;;;;5060605;28;45902;-75
2022/05/24 08:50:04;;;;;;;;;0.00;0.00;;;;;;;;5068560;28;45718;-75
2022/05/24 08:52:39;;;;;;;;;0.00;0.00;;;;;;;;5078251;27;45355;-75
2022/05/24 08:55:04;;;;;;;;;1.67;0.00;;;;;;;;5070652;28;45227;-76
2022/05/24 08:57:42;;;;;;;;;0.00;0.00;;;;;;;;5071085;28;47316;-75
2022/05/24 09:00:13;;;;;;;;;0.00;0.00;;;;;;;;5072198;27;45287;-76
2022/05/24 09:02:41;;;;;;;;;2.00;0.67;;;;;;;;5072232;28;45395;-76
2022/05/24 09:05:12;;;;;;;;;0.00;0.00;;;;;;;;5072825;28;45413;-75
2022/05/24 09:08:00;;;;;;;;;0.67;0.00;;;;;;;;5078764;27;45469;-77
2022/05/24 09:10:34;;;;;;;;;0.00;0.00;;;;;;;;5067876;27;45348;-76
2022/05/24 09:13:08;;;;;;;;;0.00;0.00;;;;;;;;5076253;28;45235;-76
2022/05/24 09:15:36;;;;;;;;;0.00;0.00;;;;;;;;5069800;27;45505;-76
2022/05/24 09:18:04;;;;;;;;;0.67;0.67;;;;;;;;5071704;28;46078;-76
2022/05/24 09:20:40;;;;;;;;;0.00;0.00;;;;;;;;5069834;28;45464;-77
2022/05/24 09:23:18;;;;;;;;;0.00;0.00;;;;;;;;5063182;27;45347;-76
2022/05/24 09:25:55;;;;;;;;;0.00;0.00;;;;;;;;5086009;27;45532;-76
2022/05/24 09:28:40;;;;;;;;;0.00;0.00;;;;;;;;5059726;28;45434;-76
2022/05/24 09:31:05;;;;;;;;;1.00;1.00;;;;;;;;5060374;27;45387;-76
2022/05/24 09:33:31;;;;;;;;;0.00;0.00;;;;;;;;5060134;28;45367;-76
2022/05/24 09:35:58;;;;;;;;;0.00;0.00;;;;;;;;5063548;28;45468;-76
2022/05/24 09:38:28;;;;;;;;;0.00;0.00;;;;;;;;5064949;28;46370;-76
2022/05/24 09:40:55;;;;;;;;;1.33;0.00;;;;;;;;5078001;27;45305;-76
2022/05/24 09:43:29;;;;;;;;;0.00;0.00;;;;;;;;5075786;28;45330;-75
2022/05/24 09:46:03;;;;;;;;;0.00;0.00;;;;;;;;5077369;27;45429;-76
2022/05/24 09:48:30;;;;;;;;;0.00;0.00;;;;;;;;5086901;27;46216;-75
2022/05/24 09:50:56;;;;;;;;;0.00;0.00;;;;;;;;5068382;27;45337;-76
2022/05/24 09:53:23;;;;;;;;;0.00;0.00;;;;;;;;5069446;27;45410;-76
2022/05/24 09:56:01;;;;;;;;;0.00;0.00;;;;;;;;5090192;27;45483;-76
2022/05/24 09:58:35;;;;;;;;;1.00;1.00;;;;;;;;5060175;28;45355;-75
2022/05/24 10:01:00;;;;;;;;;0.00;0.00;;;;;;;;5059891;28;45355;-75
2022/05/24 10:03:30;;;;;;;;;0.67;0.67;;;;;;;;5073533;27;45463;-76
2022/05/24 10:06:03;;;;;;;;;0.00;0.00;;;;;;;;5065269;28;45548;-77
2022/05/24 10:08:33;;;;;;;;;0.00;0.00;;;;;;;;5064820;28;48768;-76
2022/05/24 10:10:59;;;;;;;;;0.00;0.00;;;;;;;;5069578;28;45879;-76
2022/05/24 10:13:27;;;;;;;;;0.33;0.33;;;;;;;;5090102;27;45535;-76
2022/05/24 10:16:27;;;;;;;;;0.00;0.00;;;;;;;;5074076;28;45481;-76
2022/05/24 10:19:01;;;;;;;;;0.00;0.00;;;;;;;;5042499;28;46402;-76
2022/05/24 10:21:35;;;;;;;;;0.00;0.00;;;;;;;;5037310;28;45500;-75
2022/05/24 10:24:24;;;;;;;;;0.00;0.00;;;;;;;;5044733;28;45362;-76
2022/05/24 10:27:13;;;;;;;;;0.00;0.00;;;;;;;;5029967;28;45568;-76
2022/05/24 10:29:38;;;;;;;;;1.00;0.00;;;;;;;;5029983;28;47140;-76
2022/05/24 10:32:06;;;;;;;;;1.00;1.00;;;;;;;;5035447;28;45546;-76
2022/05/24 10:40:32;;;;;;;;;0.00;0.00;;;;;;;;5022396;28;45412;-76
2022/05/24 10:43:12;;;;;;;;;0.00;0.00;;;;;;;;5037055;28;45340;-76
2022/05/24 10:45:49;;;;;;;;;0.33;0.33;;;;;;;;5037122;28;45341;-76
2022/05/24 10:48:19;;;;;;;;;0.00;0.00;;;;;;;;5042223;28;48417;-76
2022/05/24 10:50:48;;;;;;;;;0.00;0.00;;;;;;;;5041543;28;45510;-76
2022/05/24 10:53:39;;;;;;;;;0.00;0.00;;;;;;;;5061533;27;45379;-75
2022/05/24 10:56:08;;;;;;;;;2.00;0.00;;;;;;;;5051600;28;45610;-75
2022/05/24 10:58:36;;;;;;;;;1.00;1.00;;;;;;;;5043394;28;45550;-75
2022/05/24 11:01:19;;;;;;;;;1.00;1.00;;;;;;;;5067720;28;46012;-75
2022/05/24 11:03:47;;;;;;;;;0.33;0.00;;;;;;;;5058154;28;45506;-75
2022/05/24 11:06:31;;;;;;;;;0.00;0.00;;;;;;;;5042169;28;45423;-75
2022/05/24 11:09:18;;;;;;;;;0.00;0.00;;;;;;;;5046893;28;45645;-75
2022/05/24 11:11:43;;;;;;;;;0.67;0.67;;;;;;;;5053732;28;46453;-76
2022/05/24 11:14:12;;;;;;;;;3.00;1.00;;;;;;;;5050963;28;45285;-76
2022/05/24 11:16:39;;;;;;;;;1.00;1.00;;;;;;;;5053186;28;45494;-76
2022/05/24 11:19:15;;;;;;;;;2.00;1.00;;;;;;;;5037440;28;45391;-76
2022/05/24 11:21:43;;;;;;;;;1.67;1.00;;;;;;;;5054987;28;47772;-77
2022/05/24 11:24:20;;;;;;;;;0.33;0.00;;;;;;;;5051081;28;45444;-75
2022/05/24 11:26:51;;;;;;;;;0.33;0.00;;;;;;;;5046153;28;45561;-76
2022/05/24 11:29:24;;;;;;;;;0.00;0.00;;;;;;;;5041646;28;45616;-76
2022/05/24 11:31:51;;;;;;;;;1.00;1.00;;;;;;;;5038595;28;45823;-75
2022/05/24 11:34:20;;;;;;;;;0.33;0.00;;;;;;;;5058537;28;45553;-76
2022/05/24 11:36:48;;;;;;;;;0.33;0.33;;;;;;;;5068244;28;45339;-75
2022/05/24 11:39:23;;;;;;;;;0.67;0.67;;;;;;;;5065082;27;45367;-76
2022/05/24 11:41:49;;;;;;;;;1.00;1.00;;;;;;;;5068317;27;46218;-76
2022/05/24 11:44:28;;;;;;;;;1.00;1.00;;;;;;;;5060990;28;45441;-76
2022/05/24 11:46:56;;;;;;;;;1.00;1.00;;;;;;;;5061860;27;45418;-76
2022/05/24 11:49:24;;;;;;;;;0.00;0.00;;;;;;;;5072547;27;45497;-75
2022/05/24 11:51:54;;;;;;;;;1.00;1.00;;;;;;;;5065873;27;46260;-75
2022/05/24 11:54:19;;;;;;;;;0.00;0.00;;;;;;;;5061409;28;45315;-75
2022/05/24 11:57:00;;;;;;;;;2.00;2.00;;;;;;;;5058891;27;45432;-75
2022/05/24 11:59:41;;;;;;;;;0.67;0.00;;;;;;;;5061022;28;45899;-76
2022/05/24 12:02:20;;;;;;;;;0.00;0.00;;;;;;;;5060857;28;46522;-75
2022/05/24 12:07:59;;;;;;;;;0.00;0.00;;;;;;;;5058527;28;45280;-75
2022/05/24 12:10:35;;;;;;;;;0.00;0.00;;;;;;;;5057895;28;45544;-76
2022/05/24 12:13:03;;;;;;;;;0.00;0.00;;;;;;;;5086662;27;46275;-76
2022/05/24 12:15:31;;;;;;;;;1.00;1.00;;;;;;;;5078030;27;45372;-75
2022/05/24 12:17:59;;;;;;;;;0.67;0.00;;;;;;;;5068498;28;45470;-76
2022/05/24 12:20:33;;;;;;;;;0.00;0.00;;;;;;;;5064971;27;46769;-76
2022/05/24 12:23:04;;;;;;;;;0.33;0.00;;;;;;;;5061001;28;46339;-76
2022/05/24 12:25:47;;;;;;;;;0.00;0.00;;;;;;;;5057871;27;47592;-76
2022/05/24 12:28:13;;;;;;;;;1.33;0.67;;;;;;;;5069675;27;45520;-77
2022/05/24 12:30:40;;;;;;;;;0.00;0.00;;;;;;;;5073383;28;45389;-76
2022/05/24 12:33:20;;;;;;;;;2.00;0.00;;;;;;;;5057566;27;45520;-76
2022/05/24 12:35:52;;;;;;;;;0.00;0.00;;;;;;;;5072447;27;45602;-73
2022/05/24 12:38:21;;;;;;;;;1.00;0.67;;;;;;;;5077153;27;45475;-76
2022/05/24 12:40:46;;;;;;;;;1.00;0.00;;;;;;;;5071721;28;45403;-76
2022/05/24 12:43:16;;;;;;;;;1.00;1.00;;;;;;;;5059461;27;45970;-76
2022/05/24 12:45:43;;;;;;;;;0.00;0.00;;;;;;;;5064484;27;45488;-75
2022/05/24 12:48:17;;;;;;;;;0.00;0.00;;;;;;;;5069632;27;45399;-75
2022/05/24 12:50:43;;;;;;;;;2.00;1.00;;;;;;;;5069007;28;45470;-76
2022/05/24 12:53:10;;;;;;;;;0.67;0.67;;;;;;;;5068848;27;46892;-75
2022/05/24 12:56:19;;;;;;;;;0.00;0.00;;;;;;;;5070917;28;45449;-76
2022/05/24 12:58:28;;;;;;;;;1.33;0.00;;;;;;;;5064077;27;45307;-76
2022/05/24 13:01:13;;;;;;;;;2.00;0.00;;;;;;;;5071656;28;45499;-74
2022/05/24 13:03:42;;;;;;;;;0.33;0.33;;;;;;;;5074925;28;45450;-75
2022/05/24 13:06:08;;;;;;;;;2.00;1.00;;;;;;;;5061052;27;45390;-75
2022/05/24 13:08:33;;;;;;;;;0.00;0.00;;;;;;;;5057844;27;45383;-75
2022/05/24 13:10:58;;;;;;;;;0.00;0.00;;;;;;;;5060232;28;45336;-75
2022/05/24 13:13:24;;;;;;;;;2.33;1.00;;;;;;;;5078439;27;45232;-76
2022/05/24 13:15:50;;;;;;;;;1.00;1.00;;;;;;;;5072141;27;45465;-75
2022/05/24 13:18:20;;;;;;;;;0.33;0.00;;;;;;;;5069544;28;45446;-76
2022/05/24 13:20:50;;;;;;;;;1.00;0.00;;;;;;;;5063952;27;45286;-75
2022/05/24 13:23:15;;;;;;;;;0.00;0.00;;;;;;;;5062542;27;47235;-76
2022/05/24 13:25:54;;;;;;;;;0.67;0.00;;;;;;;;5069815;27;45649;-75
2022/05/24 13:28:38;;;;;;;;;0.00;0.00;;;;;;;;5057462;28;45334;-75
2022/05/24 13:34:25;;;;;;;;;0.00;0.00;;;;;;;;5072066;28;45342;-76
2022/05/24 13:36:50;;;;;;;;;0.00;0.00;;;;;;;;5071026;28;45340;-75
2022/05/24 13:39:26;;;;;;;;;0.00;0.00;;;;;;;;5069897;27;45408;-75
2022/05/24 13:42:02;;;;;;;;;0.00;0.00;;;;;;;;5067924;27;45806;-76
2022/05/24 13:44:30;;;;;;;;;0.00;0.00;;;;;;;;5060801;27;45915;-75
2022/05/24 13:47:00;;;;;;;;;0.67;0.00;;;;;;;;5060743;28;45341;-76
2022/05/24 13:49:25;;;;;;;;;0.00;0.00;;;;;;;;5090007;27;45683;-76
2022/05/24 13:51:50;;;;;;;;;0.00;0.00;;;;;;;;5061787;28;45294;-75
2022/05/24 13:54:36;;;;;;;;;0.00;0.00;;;;;;;;5062912;28;45341;-75
2022/05/24 13:57:02;;;;;;;;;0.00;0.00;;;;;;;;5060568;27;48990;-75
2022/05/24 13:59:27;;;;;;;;;0.00;0.00;;;;;;;;5066085;27;45362;-74
2022/05/24 14:01:54;;;;;;;;;1.00;0.00;;;;;;;;5066001;27;45543;-76
2022/05/24 14:04:20;;;;;;;;;1.00;1.00;;;;;;;;5076074;27;46384;-75
2022/05/24 14:06:49;;;;;;;;;0.33;0.00;;;;;;;;5073984;28;45732;-75
2022/05/24 14:09:15;;;;;;;;;0.33;0.33;;;;;;;;5063127;28;45335;-75
2022/05/24 14:11:47;;;;;;;;;0.33;0.33;;;;;;;;5072910;27;45501;-75
2022/05/24 14:14:13;;;;;;;;;1.00;1.00;;;;;;;;5080525;27;47080;-75
2022/05/24 14:16:38;;;;;;;;;2.00;0.00;;;;;;;;5059085;28;45390;-75
2022/05/24 14:19:03;;;;;;;;;0.00;0.00;;;;;;;;5074486;27;45270;-75
2022/05/24 14:21:29;;;;;;;;;1.00;1.00;;;;;;;;5073209;27;45399;-75
2022/05/24 14:23:55;;;;;;;;;0.67;0.67;;;;;;;;5065667;27;47060;-75
2022/05/24 14:26:21;;;;;;;;;1.67;1.00;;;;;;;;5069078;27;45568;-75
2022/05/24 14:28:46;;;;;;;;;0.00;0.00;;;;;;;;5079000;27;45640;-75
2022/05/24 14:31:13;;;;;;;;;2.00;1.67;;;;;;;;5076035;28;45283;-75
2022/05/24 14:33:38;;;;;;;;;2.00;0.33;;;;;;;;5065240;27;47124;-75
2022/05/24 14:36:04;;;;;;;;;0.00;0.00;;;;;;;;5082430;27;45720;-75
2022/05/24 14:38:31;;;;;;;;;1.00;1.00;;;;;;;;5077620;27;45505;-75
2022/05/24 14:41:16;;;;;;;;;0.00;0.00;;;;;;;;5071065;28;45494;-75
2022/05/24 14:43:44;;;;;;;;;0.00;0.00;;;;;;;;5077627;27;47212;-75
2022/05/24 14:46:09;;;;;;;;;1.00;1.00;;;;;;;;5058893;28;45799;-75
2022/05/24 14:48:34;;;;;;;;;2.67;0.00;;;;;;;;5073258;28;45429;-74
2022/05/24 14:50:59;;;;;;;;;1.00;1.00;;;;;;;;5072267;27;45393;-75
2022/05/24 14:53:25;;;;;;;;;0.00;0.00;;;;;;;;5076248;27;48694;-75
2022/05/24 14:55:50;;;;;;;;;0.00;0.00;;;;;;;;5070209;28;45450;-74
2022/05/24 14:58:15;;;;;;;;;0.00;0.00;;;;;;;;5074966;28;45440;-74
2022/05/24 15:00:40;;;;;;;;;0.00;0.00;;;;;;;;5085367;27;45565;-75
2022/05/24 15:03:06;;;;;;;;;0.00;0.00;;;;;;;;5071975;27;45543;-75
2022/05/24 15:05:33;;;;;;;;;0.00;0.00;;;;;;;;5070416;28;45450;-75
2022/05/24 15:16:35;;;;;;;;;1.00;0.00;;;;;;;;5012121;28;45325;-75
2022/05/24 15:19:01;;;;;;;;;1.00;0.00;;;;;;;;5014022;28;45438;-75
2022/05/24 15:21:28;;;;;;;;;0.00;0.00;;;;;;;;5014548;28;45440;-75
2022/05/24 15:23:56;;;;;;;;;0.00;0.00;;;;;;;;5014348;28;45602;-75
2022/05/24 15:26:23;;;;;;;;;0.00;0.00;;;;;;;;5013605;28;45459;-74
2022/05/24 15:28:54;;;;;;;;;0.00;0.00;;;;;;;;5013954;28;45576;-74
2022/05/24 15:31:20;;;;;;;;;0.00;0.00;;;;;;;;4998306;28;45492;-74
2022/05/24 15:33:46;;;;;;;;;1.67;1.00;;;;;;;;5010111;28;45419;-75
2022/05/24 15:36:11;;;;;;;;;1.33;0.00;;;;;;;;5012835;28;45527;-75